Ambanja Airport


Codes: FMNJ/IVA
Name: Ambanja Airport
City: Ambanja
Country: Madagascar
Elevation: 36 ft.

Photos at Ambanja Airport


   Photos courtesy of SpottingLog. You can add your own sightings and photos by signing up for a free trial today.



No photos found.

Weather at Ambanja Airport


Time (UTC)DescriptionTempratureWindCloud coverageVisibilityPressureHumidity
17-Jun-2024 06:00Clear Sky27°C2 mph, E4%10000m1016hPa68%
17-Jun-2024 09:00Clear Sky28°C4 mph, NW3%10000m1015hPa65%
17-Jun-2024 12:00Clear Sky29°C7 mph, W5%10000m1014hPa66%
17-Jun-2024 15:00Moderate Rain25°C2 mph, W35%10000m1014hPa88%
17-Jun-2024 18:00Light Rain24°C2 mph, S36%10000m1016hPa89%
17-Jun-2024 21:00Light Rain23°C4 mph, SE25%10000m1015hPa90%
18-Jun-2024 00:00Few Clouds22°C4 mph, SE19%10000m1014hPa88%
18-Jun-2024 03:00Clear Sky22°C4 mph, SE8%10000m1015hPa85%
18-Jun-2024 06:00Clear Sky27°C2 mph, SE6%10000m1016hPa63%
18-Jun-2024 09:00Clear Sky30°C4 mph, NW1%10000m1014hPa55%
18-Jun-2024 12:00Clear Sky29°C9 mph, NW3%10000m1013hPa63%
18-Jun-2024 15:00Light Rain25°C2 mph, W1%10000m1014hPa87%
18-Jun-2024 18:00Light Rain24°C2 mph, SE4%10000m1016hPa88%
18-Jun-2024 21:00Few Clouds23°C2 mph, E24%10000m1016hPa88%
19-Jun-2024 00:00Scattered Clouds22°C4 mph, SE36%10000m1015hPa88%
19-Jun-2024 03:00Clear Sky21°C4 mph, SE8%10000m1016hPa83%
19-Jun-2024 06:00Clear Sky26°C2 mph, SE8%10000m1017hPa61%
19-Jun-2024 09:00Clear Sky29°C4 mph, NW5%10000m1015hPa51%
19-Jun-2024 12:00Clear Sky29°C7 mph, NW5%10000m1013hPa56%
19-Jun-2024 15:00Clear Sky24°C2 mph, SW7%10000m1014hPa79%
19-Jun-2024 18:00Clear Sky23°C2 mph, E9%10000m1017hPa80%
19-Jun-2024 21:00Scattered Clouds22°C2 mph, SE35%10000m1017hPa77%
20-Jun-2024 00:00Scattered Clouds21°C4 mph, SE47%10000m1016hPa75%
20-Jun-2024 03:00Broken Clouds20°C4 mph, SE72%10000m1018hPa70%
20-Jun-2024 06:00Broken Clouds25°C2 mph, S55%10000m1018hPa53%
20-Jun-2024 09:00Clear Sky29°C4 mph, NW7%10000m1017hPa44%
20-Jun-2024 12:00Few Clouds28°C9 mph, W15%10000m1015hPa53%
20-Jun-2024 15:00Few Clouds24°C2 mph, SW11%10000m1016hPa78%
20-Jun-2024 18:00Clear Sky23°C2 mph, SE8%10000m1018hPa79%
20-Jun-2024 21:00Clear Sky22°C4 mph, SE5%10000m1018hPa75%
21-Jun-2024 00:00Clear Sky20°C4 mph, SE4%10000m1017hPa69%
21-Jun-2024 03:00Clear Sky19°C4 mph, SE5%10000m1019hPa64%
21-Jun-2024 06:00Clear Sky25°C2 mph, SE4%10000m1020hPa50%
21-Jun-2024 09:00Clear Sky28°C4 mph, NW4%10000m1017hPa43%
21-Jun-2024 12:00Clear Sky28°C7 mph, W3%10000m1015hPa53%
21-Jun-2024 15:00Clear Sky24°C2 mph, NW4%10000m1017hPa79%
21-Jun-2024 18:00Clear Sky23°C2 mph, S4%10000m1019hPa82%
21-Jun-2024 21:00Clear Sky21°C4 mph, SE0%10000m1018hPa81%
22-Jun-2024 00:00Clear Sky20°C4 mph, SE0%10000m1017hPa73%
22-Jun-2024 03:00Clear Sky19°C4 mph, SE0%10000m1018hPa71%